Time;durP1;ratioP1;P1;durP2;ratioP2;P2;SDS_P1;SDS_P2;PMS_P1;PMS_P2;Temp;Humidity;BMP_temperature;BMP_pressure;BME280_temperature;BME280_humidity;BME280_pressure;Samples;Min_cycle;Max_cycle;Signal;HPM_P1;HPM_P2
2024/04/03 00:00:46;;;;;;;1999.90;999.90;;;13.20;87.60;;;;;;6129474;23;20162;-78
2024/04/03 00:03:12;;;;;;;1999.90;999.90;;;13.20;87.40;;;;;;6129842;23;20159;-78
2024/04/03 00:05:38;;;;;;;1999.90;999.90;;;13.20;87.40;;;;;;6129955;23;20199;-78
2024/04/03 00:08:04;;;;;;;1999.90;999.90;;;13.20;87.40;;;;;;6131650;23;20542;-78
2024/04/03 00:10:31;;;;;;;1999.90;999.90;;;13.20;87.40;;;;;;6157920;23;20165;-78
2024/04/03 00:12:56;;;;;;;1999.90;999.90;;;13.30;87.50;;;;;;6152747;23;20214;-78
2024/04/03 00:15:23;;;;;;;1999.90;999.90;;;13.20;87.30;;;;;;6153870;23;20152;-78
2024/04/03 00:17:52;;;;;;;1999.90;999.90;;;13.20;87.30;;;;;;6146412;23;20189;-78
2024/04/03 00:20:18;;;;;;;1999.90;999.90;;;13.20;87.20;;;;;;6125605;23;20550;-79
2024/04/03 00:22:44;;;;;;;1999.90;999.90;;;13.30;87.20;;;;;;6125360;23;20178;-78
2024/04/03 00:25:10;;;;;;;1999.90;999.90;;;13.30;87.10;;;;;;6125644;23;20157;-78
2024/04/03 00:27:35;;;;;;;1999.90;999.90;;;13.30;87.10;;;;;;6127473;23;20153;-78
2024/04/03 00:30:01;;;;;;;1999.90;999.90;;;13.30;87.00;;;;;;6126467;23;20494;-78
2024/04/03 00:32:27;;;;;;;1999.90;999.90;;;13.30;86.90;;;;;;6125661;23;20198;-78
2024/04/03 00:34:53;;;;;;;1999.90;999.90;;;13.40;86.90;;;;;;6126192;23;20155;-78
2024/04/03 00:37:22;;;;;;;1999.90;999.90;;;13.40;86.80;;;;;;6127028;23;20157;-79
2024/04/03 00:39:53;;;;;;;1999.90;999.90;;;13.40;86.70;;;;;;6125759;23;20157;-78
2024/04/03 00:42:19;;;;;;;1999.90;999.90;;;13.40;86.60;;;;;;6126746;23;20171;-78
2024/04/03 00:44:49;;;;;;;1999.90;999.90;;;13.50;86.50;;;;;;6125451;23;20174;-78
2024/04/03 00:47:16;;;;;;;1999.90;999.90;;;13.50;86.50;;;;;;6124885;23;20711;-78
2024/04/03 00:49:43;;;;;;;1999.90;999.90;;;13.50;86.40;;;;;;6125382;23;20194;-78
2024/04/03 00:52:10;;;;;;;1999.90;999.90;;;13.50;86.40;;;;;;6125052;23;20723;-78
2024/04/03 00:54:37;;;;;;;1999.90;999.90;;;13.50;86.20;;;;;;6125155;23;20159;-78
2024/04/03 00:57:02;;;;;;;1999.90;999.90;;;13.50;86.10;;;;;;6124984;23;20159;-78
2024/04/03 00:59:28;;;;;;;1999.90;999.90;;;13.50;86.10;;;;;;6124875;23;20182;-78
2024/04/03 01:01:54;;;;;;;1999.90;999.90;;;13.40;86.00;;;;;;6125243;23;20183;-78
2024/04/03 01:04:20;;;;;;;1999.90;999.90;;;13.40;86.00;;;;;;6125246;23;20218;-77
2024/04/03 01:06:45;;;;;;;1999.90;999.90;;;13.40;85.90;;;;;;6126789;23;20159;-78
2024/04/03 01:09:11;;;;;;;1999.90;999.90;;;13.40;85.90;;;;;;6125668;23;20245;-78
2024/04/03 01:11:37;;;;;;;1999.90;999.90;;;13.40;85.80;;;;;;6129569;23;20671;-78
2024/04/03 01:14:02;;;;;;;1999.90;999.90;;;13.30;85.70;;;;;;6129318;23;20146;-78
2024/04/03 01:16:28;;;;;;;1999.90;999.90;;;13.30;85.70;;;;;;6154828;23;20151;-78
2024/04/03 01:18:54;;;;;;;1999.90;999.90;;;13.30;85.80;;;;;;6129636;23;20568;-78
2024/04/03 01:21:19;;;;;;;1999.90;999.90;;;13.30;85.80;;;;;;6155626;23;20260;-79
2024/04/03 01:23:51;;;;;;;1999.90;999.90;;;13.30;85.70;;;;;;6155614;23;20158;-78
2024/04/03 01:26:17;;;;;;;1999.90;999.90;;;13.20;85.70;;;;;;6155105;23;20150;-79
2024/04/03 01:28:43;;;;;;;1999.90;999.90;;;13.20;85.80;;;;;;6155478;23;20151;-79
2024/04/03 01:31:08;;;;;;;1999.90;999.90;;;13.20;85.80;;;;;;6129372;23;20190;-78
2024/04/03 01:33:34;;;;;;;1999.90;999.90;;;13.20;85.90;;;;;;6155611;23;20232;-78
2024/04/03 01:36:01;;;;;;;1999.90;999.90;;;13.10;86.00;;;;;;6154820;23;20161;-79
2024/04/03 01:38:26;;;;;;;1999.90;999.90;;;13.10;86.10;;;;;;6155720;23;20670;-78
2024/04/03 01:40:53;;;;;;;1999.90;999.90;;;13.10;86.20;;;;;;6155352;23;20182;-78
2024/04/03 01:43:18;;;;;;;1999.90;999.90;;;13.10;86.30;;;;;;6128917;23;20221;-78
2024/04/03 01:45:44;;;;;;;1999.90;999.90;;;13.00;86.40;;;;;;6129310;23;20154;-78
2024/04/03 01:48:10;;;;;;;1999.90;999.90;;;12.90;86.50;;;;;;6128185;23;20219;-79
2024/04/03 01:50:37;;;;;;;1999.90;999.90;;;12.90;86.60;;;;;;6128853;23;20158;-80
2024/04/03 01:53:03;;;;;;;1999.90;999.90;;;12.90;86.80;;;;;;6155257;23;20433;-78
2024/04/03 01:55:29;;;;;;;1999.90;999.90;;;12.90;86.80;;;;;;6129242;23;20238;-79
2024/04/03 01:57:55;;;;;;;1999.90;999.90;;;12.90;86.80;;;;;;6154618;23;20554;-78
2024/04/03 02:00:20;;;;;;;1999.90;999.90;;;12.90;86.80;;;;;;6129025;23;20159;-78
2024/04/03 02:02:46;;;;;;;1999.90;999.90;;;12.90;86.80;;;;;;6154944;23;20170;-78
2024/04/03 02:05:12;;;;;;;1999.90;999.90;;;12.90;86.80;;;;;;6155072;23;20158;-78
2024/04/03 02:07:37;;;;;;;1999.90;999.90;;;12.90;86.80;;;;;;6127966;23;20162;-78
2024/04/03 02:10:04;;;;;;;1999.90;999.90;;;12.90;86.80;;;;;;6129292;23;20166;-79
2024/04/03 02:12:31;;;;;;;1999.90;999.90;;;12.90;86.80;;;;;;6123919;23;20195;-79
2024/04/03 02:14:56;;;;;;;1999.90;999.90;;;12.90;86.80;;;;;;6125601;23;20155;-78
2024/04/03 02:17:22;;;;;;;1999.90;999.90;;;12.90;86.70;;;;;;6123126;23;20648;-78
2024/04/03 02:19:49;;;;;;;1999.90;999.90;;;12.90;86.70;;;;;;6123772;23;20210;-78
2024/04/03 02:22:14;;;;;;;1999.90;999.90;;;12.90;86.70;;;;;;6123915;23;20211;-78
2024/04/03 02:24:40;;;;;;;1999.90;999.90;;;12.80;86.70;;;;;;6126701;23;20206;-79
2024/04/03 02:27:06;;;;;;;1999.90;999.90;;;12.80;86.80;;;;;;6124465;23;20230;-78
2024/04/03 02:29:31;;;;;;;1999.90;999.90;;;12.70;87.00;;;;;;6127405;23;20233;-78
2024/04/03 02:31:57;;;;;;;1999.90;999.90;;;12.60;87.10;;;;;;6127219;23;20179;-78
2024/04/03 02:34:23;;;;;;;1999.90;999.90;;;12.60;87.30;;;;;;6125741;23;20159;-78
2024/04/03 02:36:48;;;;;;;1999.90;999.90;;;12.50;87.50;;;;;;6126487;23;20671;-78
2024/04/03 02:39:14;;;;;;;1999.90;999.90;;;12.40;87.50;;;;;;6127106;23;20158;-78
2024/04/03 02:41:39;;;;;;;1999.90;999.90;;;12.40;87.70;;;;;;6126736;23;20507;-78
2024/04/03 02:44:06;;;;;;;1999.90;999.90;;;12.40;87.80;;;;;;6127262;23;20183;-78
2024/04/03 02:46:31;;;;;;;1999.90;999.90;;;12.40;87.80;;;;;;6125985;23;20206;-79
2024/04/03 02:48:57;;;;;;;1999.90;999.90;;;12.30;87.90;;;;;;6127121;23;20155;-78
2024/04/03 02:51:23;;;;;;;1999.90;999.90;;;12.40;87.90;;;;;;6126952;23;20253;-78
2024/04/03 02:53:49;;;;;;;1999.90;999.90;;;12.40;87.90;;;;;;6126922;23;20689;-78
2024/04/03 02:56:15;;;;;;;1999.90;999.90;;;12.40;87.80;;;;;;6126056;23;20606;-78
2024/04/03 02:58:41;;;;;;;1999.90;999.90;;;12.40;87.60;;;;;;6125569;23;20187;-78
2024/04/03 03:01:08;;;;;;;1999.90;999.90;;;12.40;87.50;;;;;;6125258;23;20183;-78
2024/04/03 03:03:34;;;;;;;1999.90;999.90;;;12.50;87.40;;;;;;6126564;23;20152;-79
2024/04/03 03:06:04;;;;;;;1999.90;999.90;;;12.50;87.30;;;;;;6126048;23;20151;-79
2024/04/03 03:08:32;;;;;;;1999.90;999.90;;;12.50;87.30;;;;;;6126699;23;20177;-79
2024/04/03 03:10:59;;;;;;;1999.90;999.90;;;12.40;87.20;;;;;;6125003;23;20230;-78
2024/04/03 03:13:29;;;;;;;1999.90;999.90;;;12.40;87.40;;;;;;6150894;23;20166;-78
2024/04/03 03:15:58;;;;;;;1999.90;931.70;;;12.30;87.50;;;;;;6129737;23;20150;-78
2024/04/03 03:18:25;;;;;;;1999.90;999.90;;;12.30;87.50;;;;;;6129621;23;20232;-78
2024/04/03 03:20:51;;;;;;;1999.90;999.90;;;12.30;87.60;;;;;;6129696;23;20181;-78
2024/04/03 03:23:17;;;;;;;1999.90;683.70;;;12.30;87.70;;;;;;6155889;23;20147;-78
2024/04/03 03:25:48;;;;;;;1999.90;999.90;;;12.20;87.80;;;;;;6156076;23;20495;-78
2024/04/03 03:28:15;;;;;;;1999.90;999.90;;;12.20;88.00;;;;;;6154935;23;20150;-79
2024/04/03 03:30:45;;;;;;;1999.90;999.90;;;12.20;88.20;;;;;;6129578;23;20209;-78
2024/04/03 03:33:11;;;;;;;1999.90;999.90;;;12.10;88.40;;;;;;6156219;23;20162;-78
2024/04/03 03:35:36;;;;;;;1999.90;999.90;;;12.10;88.40;;;;;;6155655;23;20150;-78
2024/04/03 03:38:02;;;;;;;1999.90;999.90;;;12.10;88.50;;;;;;6128793;23;20603;-78
2024/04/03 03:40:28;;;;;;;1999.90;999.90;;;12.00;88.60;;;;;;6155677;23;20147;-79
2024/04/03 03:42:53;;;;;;;1999.90;999.90;;;12.00;88.60;;;;;;6129398;23;20308;-79
2024/04/03 03:45:20;;;;;;;1999.90;999.90;;;12.00;88.70;;;;;;6155876;23;20280;-78
2024/04/03 03:47:47;;;;;;;1999.90;999.90;;;12.00;88.70;;;;;;6154872;23;20513;-78
2024/04/03 03:52:57;;;;;;;1999.90;999.90;;;12.10;88.50;;;;;;6155217;23;20610;-78
2024/04/03 03:55:26;;;;;;;1999.90;999.90;;;12.10;88.50;;;;;;6155544;23;20170;-78
2024/04/03 03:57:52;;;;;;;1999.90;999.90;;;12.10;88.40;;;;;;6154508;23;20493;-79
2024/04/03 04:00:17;;;;;;;1999.90;999.90;;;12.20;88.30;;;;;;6155536;23;20146;-78
2024/04/03 04:02:43;;;;;;;1999.90;999.90;;;12.20;88.10;;;;;;6155150;23;20178;-78
2024/04/03 04:05:09;;;;;;;1999.90;999.90;;;12.20;88.10;;;;;;6155621;23;20179;-78
2024/04/03 04:07:34;;;;;;;1999.90;999.90;;;12.30;88.10;;;;;;6154379;23;20155;-78
2024/04/03 04:10:00;;;;;;;1999.90;999.90;;;12.30;88.10;;;;;;6155261;23;20159;-78
2024/04/03 04:12:25;;;;;;;1999.90;999.90;;;12.30;88.10;;;;;;6124092;23;20202;-78
2024/04/03 04:14:52;;;;;;;1999.90;999.90;;;12.30;88.00;;;;;;6124202;23;20250;-78
2024/04/03 04:17:19;;;;;;;1999.90;999.90;;;12.30;87.90;;;;;;6123456;23;20155;-78
2024/04/03 04:19:46;;;;;;;1999.90;956.60;;;12.30;87.80;;;;;;6125525;23;20151;-78
2024/04/03 04:22:12;;;;;;;1999.90;999.90;;;12.30;87.80;;;;;;6124136;23;20183;-78
2024/04/03 04:24:38;;;;;;;1999.90;999.90;;;12.30;87.80;;;;;;6125656;23;20159;-78
2024/04/03 04:27:07;;;;;;;1999.90;999.90;;;12.30;87.70;;;;;;6123355;23;20190;-79
2024/04/03 04:29:36;;;;;;;1999.90;999.90;;;12.20;87.70;;;;;;6125466;23;20238;-78
2024/04/03 04:32:05;;;;;;;1999.90;999.90;;;12.20;87.60;;;;;;6123788;23;20195;-78
2024/04/03 04:34:30;;;;;;;1999.90;691.93;;;12.20;87.60;;;;;;6125726;23;20202;-79
2024/04/03 04:36:56;;;;;;;1999.90;879.97;;;12.10;87.40;;;;;;6124667;23;20143;-79
2024/04/03 04:39:22;;;;;;;1999.90;999.90;;;12.10;87.40;;;;;;6126151;23;20178;-77
2024/04/03 04:41:51;;;;;;;1999.90;999.90;;;12.10;87.40;;;;;;6124837;23;20233;-79
2024/04/03 04:44:20;;;;;;;1999.90;999.90;;;12.10;87.40;;;;;;6125130;23;20240;-79
2024/04/03 04:46:50;;;;;;;1999.90;999.90;;;12.10;87.40;;;;;;6125676;23;20166;-79
2024/04/03 04:49:16;;;;;;;1999.90;999.90;;;12.10;87.30;;;;;;6125442;23;20638;-78
2024/04/03 04:51:42;;;;;;;1999.90;999.90;;;12.10;87.30;;;;;;6125178;23;20197;-80
2024/04/03 04:54:09;;;;;;;1999.90;999.90;;;12.10;87.30;;;;;;6128362;23;20147;-79
2024/04/03 04:56:34;;;;;;;1999.90;999.90;;;12.20;87.40;;;;;;6125610;23;20159;-79
2024/04/03 04:59:00;;;;;;;1999.90;999.90;;;12.20;87.40;;;;;;6124967;23;20651;-78
2024/04/03 05:01:26;;;;;;;1999.90;999.90;;;12.10;87.40;;;;;;6126231;23;20182;-78
2024/04/03 05:03:52;;;;;;;1999.90;999.90;;;12.10;87.60;;;;;;6126495;23;20178;-79
2024/04/03 05:06:18;;;;;;;1999.90;999.90;;;12.10;87.60;;;;;;6125181;23;20162;-77
2024/04/03 05:08:44;;;;;;;1999.90;999.90;;;12.10;87.80;;;;;;6127248;23;20632;-78
2024/04/03 05:11:10;;;;;;;1999.90;999.90;;;12.00;87.80;;;;;;6125146;23;20246;-79
2024/04/03 05:13:35;;;;;;;1999.90;999.90;;;12.00;88.00;;;;;;6125020;23;20182;-79
2024/04/03 05:16:14;;;;;;;1999.90;999.90;;;12.00;88.00;;;;;;6124057;23;20166;-79
2024/04/03 05:18:43;;;;;;;1999.90;962.13;;;12.10;88.00;;;;;;6126392;23;20135;-79
2024/04/03 05:21:10;;;;;;;1999.90;999.90;;;12.10;88.00;;;;;;6126715;23;20171;-78
2024/04/03 05:23:35;;;;;;;1999.90;999.90;;;12.10;88.00;;;;;;6124668;23;20173;-78
2024/04/03 05:26:03;;;;;;;1999.90;999.90;;;12.10;88.00;;;;;;6123789;23;20238;-79
2024/04/03 05:28:30;;;;;;;1999.90;999.90;;;12.10;88.00;;;;;;6124743;23;20161;-79
2024/04/03 05:31:04;;;;;;;1999.90;999.90;;;12.10;87.90;;;;;;6124336;23;20178;-78
2024/04/03 05:33:33;;;;;;;1999.90;999.90;;;12.20;87.80;;;;;;6125846;23;20186;-78
2024/04/03 05:36:02;;;;;;;1999.90;999.90;;;12.20;87.80;;;;;;6125327;23;20163;-79
2024/04/03 05:38:28;;;;;;;1999.90;999.90;;;12.20;87.70;;;;;;6126258;23;20161;-79
2024/04/03 05:40:55;;;;;;;1999.90;999.90;;;12.20;87.60;;;;;;6126398;23;20233;-78
2024/04/03 05:43:21;;;;;;;1999.90;999.90;;;12.20;87.60;;;;;;6126304;23;20151;-79
2024/04/03 05:45:47;;;;;;;1999.90;999.90;;;12.20;87.60;;;;;;6125414;23;20190;-78
2024/04/03 05:48:14;;;;;;;1999.90;999.90;;;12.20;87.60;;;;;;6125679;23;20151;-78
2024/04/03 05:50:40;;;;;;;1999.90;796.63;;;12.20;87.50;;;;;;6126212;23;20175;-78
2024/04/03 05:53:06;;;;;;;1999.90;837.40;;;12.20;87.60;;;;;;6124575;23;20218;-77
2024/04/03 05:55:32;;;;;;;1999.90;999.90;;;12.30;87.50;;;;;;6124339;23;20155;-77
2024/04/03 05:57:58;;;;;;;1999.90;775.13;;;12.30;87.50;;;;;;6124548;23;20182;-78
2024/04/03 06:00:24;;;;;;;1999.90;817.50;;;12.20;87.50;;;;;;6127728;23;20178;-78
2024/04/03 06:02:49;;;;;;;1999.90;999.90;;;12.30;87.60;;;;;;6127645;23;20178;-77
2024/04/03 06:05:16;;;;;;;1999.90;999.90;;;12.30;87.70;;;;;;6124312;23;20162;-79
2024/04/03 06:07:44;;;;;;;1999.90;999.90;;;12.30;87.80;;;;;;6125532;23;20548;-77
2024/04/03 06:10:10;;;;;;;1999.90;999.90;;;12.30;87.80;;;;;;6125792;23;20155;-78
2024/04/03 06:12:36;;;;;;;1999.90;991.77;;;12.40;87.80;;;;;;6124972;23;20198;-77
2024/04/03 06:15:01;;;;;;;1999.90;858.17;;;12.40;87.80;;;;;;6127267;23;20157;-78
2024/04/03 06:17:27;;;;;;;1999.90;999.90;;;12.40;87.80;;;;;;6126478;23;20644;-77
2024/04/03 06:19:53;;;;;;;1999.90;999.90;;;12.40;87.90;;;;;;6125957;23;20159;-79
2024/04/03 06:22:18;;;;;;;1999.90;999.90;;;12.50;88.00;;;;;;6125792;23;20270;-78
2024/04/03 06:24:44;;;;;;;1999.90;721.43;;;12.50;87.90;;;;;;6125957;23;20163;-78
2024/04/03 06:27:10;;;;;;;1999.90;737.90;;;12.50;88.00;;;;;;6127175;23;20155;-78
2024/04/03 06:29:35;;;;;;;1999.90;999.90;;;12.50;88.00;;;;;;6125887;23;20634;-79
2024/04/03 06:32:01;;;;;;;1999.90;999.90;;;12.50;88.10;;;;;;6127215;23;20179;-78
2024/04/03 06:34:28;;;;;;;1999.90;999.90;;;12.60;88.10;;;;;;6126176;23;20600;-79
2024/04/03 06:36:53;;;;;;;1999.90;999.90;;;12.70;88.10;;;;;;6127083;23;20141;-78
2024/04/03 06:39:20;;;;;;;1999.90;836.90;;;12.70;88.10;;;;;;6126356;23;20499;-80
2024/04/03 06:41:45;;;;;;;1999.90;768.33;;;12.70;88.20;;;;;;6126306;23;20194;-78
2024/04/03 06:44:11;;;;;;;1999.90;999.90;;;12.70;88.30;;;;;;6127442;23;20158;-77
2024/04/03 06:46:37;;;;;;;1999.90;915.00;;;12.70;88.40;;;;;;6127300;23;20151;-80
2024/04/03 06:49:03;;;;;;;1999.90;534.20;;;12.70;88.40;;;;;;6127697;23;20490;-78
2024/04/03 06:51:28;;;;;;;1999.90;799.93;;;12.70;88.40;;;;;;6127353;23;20505;-78
2024/04/03 06:53:54;;;;;;;1802.87;553.07;;;12.70;88.60;;;;;;6126244;23;20155;-78
2024/04/03 06:56:20;;;;;;;1999.90;999.90;;;12.70;88.70;;;;;;6127307;23;20211;-78
2024/04/03 06:58:46;;;;;;;1999.90;999.90;;;12.70;88.70;;;;;;6128670;23;20170;-78
2024/04/03 07:01:12;;;;;;;1999.90;756.77;;;12.70;88.80;;;;;;6129064;23;20677;-78
2024/04/03 07:03:38;;;;;;;1999.90;604.87;;;12.70;89.00;;;;;;6127792;23;20147;-78
2024/04/03 07:06:05;;;;;;;1999.90;999.90;;;12.80;89.60;;;;;;6130587;23;20140;-78
2024/04/03 07:08:32;;;;;;;1999.90;999.90;;;12.90;88.90;;;;;;6128103;23;20151;-79
2024/04/03 07:10:58;;;;;;;1999.90;999.90;;;12.90;88.70;;;;;;6130860;23;20209;-78
2024/04/03 07:13:24;;;;;;;1999.90;999.90;;;13.00;88.50;;;;;;6124108;23;20202;-70
2024/04/03 07:15:51;;;;;;;1999.90;999.90;;;13.10;88.60;;;;;;6154879;23;20147;-70
2024/04/03 07:18:17;;;;;;;1999.90;999.90;;;13.20;88.50;;;;;;6153317;23;20638;-70
2024/04/03 07:20:57;;;;;;;1999.90;999.90;;;13.20;88.20;;;;;;6154919;23;20197;-69
2024/04/03 07:23:26;;;;;;;1999.90;650.27;;;13.20;88.20;;;;;;6154345;23;20642;-69
2024/04/03 07:25:56;;;;;;;1999.90;999.90;;;13.30;88.10;;;;;;6154811;23;20637;-69
2024/04/03 07:28:22;;;;;;;1999.90;999.90;;;13.40;88.00;;;;;;6153525;23;20213;-69
2024/04/03 07:30:48;;;;;;;1999.90;999.90;;;13.50;87.90;;;;;;6154811;23;20594;-70
2024/04/03 07:33:13;;;;;;;1453.07;487.27;;;13.50;87.80;;;;;;6127945;23;20239;-69
2024/04/03 07:35:39;;;;;;;1999.90;729.90;;;13.50;87.60;;;;;;6154821;23;20189;-69
2024/04/03 07:38:05;;;;;;;1999.90;999.90;;;13.60;87.40;;;;;;6127539;23;20209;-70
2024/04/03 07:40:31;;;;;;;1999.90;999.90;;;13.60;87.10;;;;;;6128639;23;20162;-69
2024/04/03 07:42:57;;;;;;;1999.90;999.90;;;13.60;87.00;;;;;;6154374;23;20541;-70
2024/04/03 07:45:23;;;;;;;1999.90;999.90;;;13.50;86.80;;;;;;6151582;23;20189;-69
2024/04/03 07:47:49;;;;;;;1843.60;738.43;;;13.50;86.80;;;;;;6153479;23;20151;-69
2024/04/03 07:50:16;;;;;;;1999.90;999.90;;;13.40;87.00;;;;;;6128000;23;20595;-70
2024/04/03 07:52:43;;;;;;;1839.77;271.43;;;13.30;87.10;;;;;;6154135;23;20227;-69
2024/04/03 07:55:10;;;;;;;1999.90;999.90;;;13.30;87.30;;;;;;6154786;23;20144;-69
2024/04/03 07:57:36;;;;;;;1999.90;999.90;;;13.30;87.40;;;;;;6153416;23;20151;-70
2024/04/03 08:00:08;;;;;;;1999.90;999.90;;;13.20;87.60;;;;;;6154680;23;20605;-69
2024/04/03 08:02:38;;;;;;;1999.90;999.90;;;13.20;87.90;;;;;;6154569;23;20182;-70
2024/04/03 08:05:08;;;;;;;1999.90;550.07;;;13.20;88.10;;;;;;6152410;23;20690;-69
2024/04/03 08:07:34;;;;;;;1758.70;468.03;;;13.10;88.30;;;;;;6153046;23;20163;-69
2024/04/03 08:10:07;;;;;;;1999.90;662.40;;;13.10;88.50;;;;;;6128900;23;20155;-70
2024/04/03 08:12:34;;;;;;;1999.90;999.90;;;13.00;88.50;;;;;;6127987;23;20210;-69
2024/04/03 08:15:00;;;;;;;1999.90;999.90;;;13.10;88.60;;;;;;6128139;23;20155;-70
2024/04/03 08:17:28;;;;;;;1999.90;957.40;;;13.10;88.80;;;;;;6153059;23;20158;-70
2024/04/03 08:19:55;;;;;;;1999.90;999.90;;;13.10;88.90;;;;;;6153994;23;20236;-69
2024/04/03 08:22:22;;;;;;;1999.90;999.90;;;13.20;89.00;;;;;;6153946;23;20205;-69
2024/04/03 08:24:48;;;;;;;1976.23;369.23;;;13.20;88.70;;;;;;6154158;23;20185;-69
2024/04/03 08:27:14;;;;;;;1999.90;424.60;;;13.10;88.70;;;;;;6127163;23;20253;-69
2024/04/03 08:29:43;;;;;;;1999.90;353.83;;;13.20;88.90;;;;;;6127721;23;20162;-70
2024/04/03 08:32:11;;;;;;;1999.90;999.90;;;13.20;89.50;;;;;;6153899;23;20658;-70
2024/04/03 08:34:38;;;;;;;1999.90;999.90;;;13.30;88.70;;;;;;6154007;23;20150;-69
2024/04/03 08:37:04;;;;;;;1999.90;999.90;;;13.40;88.80;;;;;;6127169;23;20154;-70
2024/04/03 08:39:31;;;;;;;1999.90;999.90;;;13.40;88.60;;;;;;6128059;23;20155;-69
2024/04/03 08:41:59;;;;;;;1999.90;999.90;;;13.40;88.40;;;;;;6153707;23;20174;-69
2024/04/03 08:44:31;;;;;;;1999.90;999.90;;;13.50;88.10;;;;;;6154218;23;20154;-70
2024/04/03 08:46:58;;;;;;;1999.90;681.60;;;13.50;88.00;;;;;;6152942;23;20138;-70
2024/04/03 08:49:29;;;;;;;1999.90;999.90;;;13.60;87.80;;;;;;6127770;23;20158;-69
2024/04/03 08:52:10;;;;;;;1999.90;572.83;;;13.50;87.70;;;;;;6153701;23;20193;-69
2024/04/03 08:54:40;;;;;;;1999.90;999.90;;;13.50;87.60;;;;;;6153928;23;20166;-69
2024/04/03 08:57:07;;;;;;;1603.10;702.30;;;13.50;87.30;;;;;;6152917;23;20174;-69
2024/04/03 08:59:38;;;;;;;1999.90;999.90;;;13.40;87.30;;;;;;6153965;23;20157;-69
2024/04/03 09:02:04;;;;;;;1999.90;999.90;;;13.50;87.50;;;;;;6153609;23;20178;-69
2024/04/03 09:04:31;;;;;;;1999.90;999.90;;;13.50;87.50;;;;;;6154097;23;20178;-69
2024/04/03 09:06:57;;;;;;;1999.90;999.90;;;13.50;87.30;;;;;;6152863;23;20158;-69
2024/04/03 09:09:25;;;;;;;1999.90;999.90;;;13.50;87.40;;;;;;6153832;23;20162;-70
2024/04/03 09:11:59;;;;;;;1999.90;999.90;;;13.60;87.40;;;;;;6153502;23;20216;-69
2024/04/03 09:14:26;;;;;;;1999.90;999.90;;;13.60;87.30;;;;;;6154115;23;20172;-69
2024/04/03 09:17:03;;;;;;;1999.90;999.90;;;13.70;87.40;;;;;;6153038;23;20135;-70
2024/04/03 09:19:30;;;;;;;1999.90;999.90;;;13.70;87.30;;;;;;6153765;23;20209;-69
2024/04/03 09:21:59;;;;;;;1999.90;999.90;;;13.70;87.20;;;;;;6153369;23;20181;-69
2024/04/03 09:24:24;;;;;;;1999.90;999.90;;;13.70;87.20;;;;;;6153881;23;20212;-70
2024/04/03 09:26:51;;;;;;;1999.90;999.90;;;13.80;87.20;;;;;;6126956;23;20877;-70
2024/04/03 09:29:18;;;;;;;1999.90;999.90;;;13.90;87.10;;;;;;6153350;23;20146;-69
2024/04/03 09:31:44;;;;;;;1999.90;999.90;;;14.00;86.90;;;;;;6127254;23;20186;-69
2024/04/03 09:34:11;;;;;;;1999.90;999.90;;;14.10;86.70;;;;;;6154873;23;20154;-70
2024/04/03 09:36:37;;;;;;;1999.90;999.90;;;14.10;86.50;;;;;;6128292;23;20594;-70
2024/04/03 09:39:03;;;;;;;1999.90;999.90;;;14.10;86.40;;;;;;6155916;23;20143;-71
2024/04/03 09:41:32;;;;;;;1999.90;999.90;;;14.20;86.40;;;;;;6155966;23;20159;-70
2024/04/03 09:44:03;;;;;;;1999.90;999.90;;;14.20;86.30;;;;;;6129631;23;20158;-70
2024/04/03 09:46:46;;;;;;;1297.53;143.13;;;14.20;85.80;;;;;;6154591;23;20509;-70
2024/04/03 09:49:14;;;;;;;1999.90;999.90;;;14.10;85.30;;;;;;6155655;23;20142;-70
2024/04/03 09:51:40;;;;;;;1999.90;999.90;;;14.00;84.40;;;;;;6155509;23;20662;-70
2024/04/03 09:54:09;;;;;;;1999.90;999.90;;;13.90;83.90;;;;;;6129259;23;20182;-70
2024/04/03 09:56:37;;;;;;;1999.90;999.90;;;13.90;84.00;;;;;;6153736;23;20138;-70
2024/04/03 09:59:02;;;;;;;1457.33;411.13;;;13.80;84.10;;;;;;6155564;23;20173;-69
2024/04/03 10:01:30;;;;;;;1999.90;999.90;;;13.80;84.10;;;;;;6155458;23;20170;-69
2024/04/03 10:04:03;;;;;;;1999.90;999.90;;;13.80;84.30;;;;;;6155404;23;20147;-69
2024/04/03 10:06:34;;;;;;;1999.90;999.90;;;13.80;84.40;;;;;;6154394;23;20143;-69
2024/04/03 10:09:14;;;;;;;1999.90;999.90;;;13.90;84.40;;;;;;6129876;23;20536;-70
2024/04/03 10:11:48;;;;;;;1999.90;999.90;;;14.00;84.50;;;;;;6155440;23;20233;-70
2024/04/03 10:14:32;;;;;;;1999.90;999.90;;;14.10;84.00;;;;;;6155566;23;20142;-69
2024/04/03 10:16:58;;;;;;;1152.53;397.93;;;14.20;84.30;;;;;;6128940;23;20150;-70
2024/04/03 10:19:30;;;;;;;1999.90;999.90;;;14.30;84.30;;;;;;6155388;23;20198;-70
2024/04/03 10:22:00;;;;;;;1999.90;999.90;;;14.30;84.60;;;;;;6154673;23;20171;-69
2024/04/03 10:24:32;;;;;;;1999.90;999.90;;;14.30;84.70;;;;;;6155759;23;20218;-70
2024/04/03 10:26:59;;;;;;;1999.90;999.90;;;14.30;85.00;;;;;;6154282;23;20162;-70
2024/04/03 10:29:25;;;;;;;1999.90;999.90;;;14.40;85.00;;;;;;6155450;23;20647;-70
2024/04/03 10:31:51;;;;;;;1999.90;999.90;;;14.40;85.10;;;;;;6155414;23;20516;-70
2024/04/03 10:34:18;;;;;;;1999.90;999.90;;;14.40;85.30;;;;;;6155552;23;20142;-69
2024/04/03 10:36:44;;;;;;;1999.90;999.90;;;14.30;85.40;;;;;;6128591;23;20147;-70
2024/04/03 10:39:10;;;;;;;1999.90;999.90;;;14.30;85.60;;;;;;6154784;23;20230;-70
2024/04/03 10:41:37;;;;;;;1999.90;999.90;;;14.20;85.80;;;;;;6154956;23;20167;-69
2024/04/03 10:44:02;;;;;;;1999.90;999.90;;;14.30;85.90;;;;;;6155749;23;20214;-70
2024/04/03 10:46:28;;;;;;;1621.53;714.97;;;14.30;85.80;;;;;;6127998;23;20175;-70
2024/04/03 10:48:58;;;;;;;1999.90;999.90;;;14.30;85.70;;;;;;6155405;23;20142;-70
2024/04/03 10:51:25;;;;;;;1999.90;999.90;;;14.30;85.90;;;;;;6155440;23;20175;-70
2024/04/03 10:53:51;;;;;;;1999.90;999.90;;;14.30;86.00;;;;;;6154956;23;20157;-71
2024/04/03 10:56:18;;;;;;;1983.13;477.33;;;14.40;86.00;;;;;;6154501;23;20156;-70
2024/04/03 10:58:44;;;;;;;1913.20;739.13;;;14.40;86.20;;;;;;6128839;23;20182;-71
2024/04/03 11:01:11;;;;;;;1999.90;999.90;;;14.40;86.40;;;;;;6155374;23;20209;-70
2024/04/03 11:03:42;;;;;;;1999.90;999.90;;;14.50;86.60;;;;;;6154913;23;20198;-70
2024/04/03 11:06:09;;;;;;;1999.90;999.90;;;14.50;86.70;;;;;;6154289;23;20170;-70
2024/04/03 11:08:35;;;;;;;1999.90;999.90;;;14.60;86.80;;;;;;6128541;23;20618;-70
2024/04/03 11:11:10;;;;;;;1999.90;999.90;;;14.70;86.80;;;;;;6154739;23;20627;-70
2024/04/03 11:13:37;;;;;;;1999.90;999.90;;;14.80;86.70;;;;;;6123792;23;20526;-70
2024/04/03 11:16:12;;;;;;;1999.90;999.90;;;14.80;86.60;;;;;;6124477;23;20152;-70
2024/04/03 11:18:37;;;;;;;1999.90;999.90;;;14.80;86.70;;;;;;6125344;23;20709;-70
2024/04/03 11:21:05;;;;;;;1999.90;999.90;;;14.90;86.70;;;;;;6125768;23;20155;-70
2024/04/03 11:23:32;;;;;;;1999.90;999.90;;;14.90;86.80;;;;;;6125492;23;20255;-70
2024/04/03 11:25:58;;;;;;;1999.90;999.90;;;14.90;86.80;;;;;;6123404;23;20177;-71
2024/04/03 11:28:23;;;;;;;1999.90;999.90;;;15.00;87.00;;;;;;6123396;23;20613;-70
2024/04/03 11:30:49;;;;;;;1999.90;999.90;;;15.10;86.90;;;;;;6125529;23;20163;-70
2024/04/03 11:33:15;;;;;;;1417.13;683.67;;;15.10;87.00;;;;;;6125041;23;20655;-70
2024/04/03 11:35:41;;;;;;;1999.90;999.90;;;15.10;87.10;;;;;;6123777;23;20668;-70
2024/04/03 11:38:06;;;;;;;1999.90;999.90;;;15.20;87.10;;;;;;6122740;23;20167;-72
2024/04/03 11:40:33;;;;;;;1806.90;781.83;;;15.30;87.10;;;;;;6123480;23;20195;-70
2024/04/03 11:42:59;;;;;;;1265.37;298.20;;;15.30;87.20;;;;;;6125360;23;20172;-70
2024/04/03 11:45:25;;;;;;;1999.90;999.90;;;15.30;87.30;;;;;;6125193;23;20807;-70
2024/04/03 11:47:51;;;;;;;1999.90;999.90;;;15.30;87.30;;;;;;6124267;23;20199;-71
2024/04/03 11:50:17;;;;;;;1999.90;999.90;;;15.20;87.30;;;;;;6125199;23;20152;-71
2024/04/03 11:52:43;;;;;;;1999.90;999.90;;;15.10;87.50;;;;;;6124823;23;20191;-71
2024/04/03 11:55:09;;;;;;;1500.80;701.40;;;15.10;87.70;;;;;;6123676;23;20148;-70
2024/04/03 11:57:35;;;;;;;1605.83;733.33;;;15.00;87.90;;;;;;6123923;23;20190;-71
2024/04/03 12:00:02;;;;;;;1999.90;999.90;;;15.00;88.10;;;;;;6125406;23;20147;-70